Time;durP1;ratioP1;P1;durP2;ratioP2;P2;SDS_P1;SDS_P2;PMS_P1;PMS_P2;Temp;Humidity;BMP_temperature;BMP_pressure;BME280_temperature;BME280_humidity;BME280_pressure;Samples;Min_cycle;Max_cycle;Signal;HPM_P1;HPM_P2
2021/05/09 00:01:22;;;;;;;16.20;3.40;;;;;;;12.00;65.21;98449.22;4994020;28;20149;-45
2021/05/09 00:03:49;;;;;;;49.40;13.85;;;;;;;11.94;65.33;98443.31;4994427;28;20074;-50
2021/05/09 00:06:16;;;;;;;21.20;5.35;;;;;;;11.94;65.68;98453.66;4994901;28;20145;-48
2021/05/09 00:08:43;;;;;;;14.48;4.10;;;;;;;11.91;66.01;98443.38;4988249;28;20046;-44
2021/05/09 00:11:09;;;;;;;19.27;3.67;;;;;;;11.89;66.33;98437.44;4994297;28;20046;-45
2021/05/09 00:13:37;;;;;;;18.55;3.92;;;;;;;11.83;66.54;98439.09;4995791;28;20061;-46
2021/05/09 00:16:04;;;;;;;16.02;3.55;;;;;;;11.78;66.69;98440.28;4980195;28;20104;-47
2021/05/09 00:18:30;;;;;;;26.10;4.93;;;;;;;11.72;66.92;98430.06;4995009;28;20101;-45
2021/05/09 00:20:57;;;;;;;18.20;3.80;;;;;;;11.67;67.20;98425.72;4995804;28;20124;-44
2021/05/09 00:23:24;;;;;;;18.83;5.43;;;;;;;11.67;67.25;98424.94;4994716;28;20047;-44
2021/05/09 00:25:50;;;;;;;14.63;3.03;;;;;;;11.66;67.40;98417.81;4994345;28;20105;-47
2021/05/09 00:28:17;;;;;;;13.77;3.00;;;;;;;11.65;67.48;98414.25;4994958;28;20047;-47
2021/05/09 00:30:44;;;;;;;12.15;3.42;;;;;;;11.62;67.56;98409.53;4995051;28;20476;-44
2021/05/09 00:33:13;;;;;;;17.67;4.25;;;;;;;11.54;67.92;98414.31;4994159;28;20129;-47
2021/05/09 00:35:40;;;;;;;13.68;2.65;;;;;;;11.52;67.99;98410.38;4995145;28;20054;-47
2021/05/09 00:38:07;;;;;;;20.50;2.85;;;;;;;11.51;68.17;98395.78;4995469;28;20085;-46
2021/05/09 00:40:33;;;;;;;15.32;3.50;;;;;;;11.49;68.17;98394.59;4976993;28;20117;-46
2021/05/09 00:42:59;;;;;;;26.10;9.80;;;;;;;11.47;68.61;98399.75;4994652;28;20520;-44
2021/05/09 00:45:26;;;;;;;14.60;4.10;;;;;;;11.42;68.95;98395.44;4993863;28;20495;-44
2021/05/09 00:47:52;;;;;;;16.60;2.83;;;;;;;11.36;69.44;98399.03;4994570;28;20535;-46
2021/05/09 00:50:19;;;;;;;22.02;3.45;;;;;;;11.35;69.36;98392.72;4994115;28;20050;-44
2021/05/09 00:52:47;;;;;;;19.80;3.55;;;;;;;11.32;69.39;98401.84;4994583;28;20201;-46
2021/05/09 00:55:15;;;;;;;19.05;3.17;;;;;;;11.30;69.67;98393.16;4994295;28;20081;-46
2021/05/09 00:57:45;;;;;;;20.00;4.20;;;;;;;11.21;70.45;98400.34;4994797;28;20554;-45
2021/05/09 01:00:13;;;;;;;17.08;2.78;;;;;;;11.16;70.41;98393.25;4994018;28;20047;-44
2021/05/09 01:02:41;;;;;;;13.75;4.30;;;;;;;11.14;70.37;98387.34;4993838;28;20156;-45
2021/05/09 01:05:10;;;;;;;21.08;2.75;;;;;;;11.10;71.00;98386.56;4994049;28;20050;-45
2021/05/09 01:07:37;;;;;;;15.10;2.80;;;;;;;11.07;70.70;98387.38;4993866;28;20043;-44
2021/05/09 01:10:06;;;;;;;17.95;3.50;;;;;;;11.03;70.98;98372.78;4994414;28;20492;-46
2021/05/09 01:12:32;;;;;;;20.52;4.15;;;;;;;11.03;70.98;98370.00;4993199;28;20046;-45
2021/05/09 01:14:59;;;;;;;25.05;3.80;;;;;;;11.02;70.86;98365.66;4993351;28;20054;-45
2021/05/09 01:17:25;;;;;;;15.65;3.10;;;;;;;11.01;71.00;98367.63;4973396;28;20105;-45
2021/05/09 01:19:52;;;;;;;16.10;2.90;;;;;;;11.00;70.88;98356.97;4990527;28;20039;-46
2021/05/09 01:22:18;;;;;;;15.07;3.42;;;;;;;10.98;71.21;98362.13;4994130;28;20496;-46
2021/05/09 01:24:44;;;;;;;18.17;3.58;;;;;;;10.95;71.06;98349.09;4985848;28;20047;-45
2021/05/09 01:27:11;;;;;;;14.38;2.42;;;;;;;10.94;71.07;98353.84;4977925;28;20066;-46
2021/05/09 01:29:37;;;;;;;22.77;4.78;;;;;;;10.93;71.13;98343.94;4993398;28;20070;-46
2021/05/09 01:32:05;;;;;;;15.00;3.28;;;;;;;10.91;71.38;98342.78;4993673;28;20074;-44
2021/05/09 01:34:36;;;;;;;14.93;3.70;;;;;;;10.92;71.39;98345.16;4993244;28;20038;-46
2021/05/09 01:37:05;;;;;;;17.95;4.03;;;;;;;10.90;71.56;98341.22;4993643;28;20074;-46
2021/05/09 01:39:32;;;;;;;14.32;2.97;;;;;;;10.91;71.44;98345.53;4993957;28;20042;-45
2021/05/09 01:42:01;;;;;;;22.17;3.90;;;;;;;10.90;71.64;98344.00;4992617;28;20061;-46
2021/05/09 01:44:27;;;;;;;25.10;4.63;;;;;;;10.84;71.86;98348.38;4993381;28;20058;-46
2021/05/09 01:46:53;;;;;;;23.45;6.38;;;;;;;10.85;71.75;98336.13;4993645;28;20077;-47
2021/05/09 01:49:20;;;;;;;17.00;3.60;;;;;;;10.87;71.80;98339.25;4993240;28;20097;-45
2021/05/09 01:51:46;;;;;;;21.25;5.28;;;;;;;10.88;71.77;98332.53;4993388;28;20050;-46
2021/05/09 01:54:13;;;;;;;11.65;2.72;;;;;;;10.85;71.60;98327.81;4993407;28;20050;-46
2021/05/09 01:56:39;;;;;;;24.80;4.97;;;;;;;10.83;71.83;98319.09;4993415;28;20081;-46
2021/05/09 01:59:07;;;;;;;15.10;2.80;;;;;;;10.79;71.77;98318.34;4990312;28;20062;-46
2021/05/09 02:01:35;;;;;;;14.35;2.90;;;;;;;10.73;71.75;98315.22;4990941;28;20073;-47
2021/05/09 02:04:02;;;;;;;18.83;3.20;;;;;;;10.73;71.69;98325.50;4992475;28;20088;-47
2021/05/09 02:06:28;;;;;;;19.60;2.97;;;;;;;10.76;71.43;98321.94;4993245;28;20112;-47
2021/05/09 02:08:55;;;;;;;14.52;2.50;;;;;;;10.79;71.29;98318.34;4993011;28;20084;-48
2021/05/09 02:11:21;;;;;;;12.18;3.08;;;;;;;10.79;71.22;98319.16;4992947;28;20070;-47
2021/05/09 02:13:47;;;;;;;13.48;2.75;;;;;;;10.80;71.22;98308.88;4993229;28;20546;-52
2021/05/09 02:16:14;;;;;;;24.98;5.95;;;;;;;10.81;71.31;98310.44;4992487;28;20108;-48
2021/05/09 02:18:40;;;;;;;18.35;2.58;;;;;;;10.80;71.44;98306.88;4992886;28;20097;-51
2021/05/09 02:21:06;;;;;;;19.52;5.10;;;;;;;10.83;71.36;98296.97;4975863;28;20085;-47
2021/05/09 02:23:32;;;;;;;21.15;3.30;;;;;;;10.84;71.39;98304.88;4991840;28;20118;-49
2021/05/09 02:25:59;;;;;;;17.95;3.60;;;;;;;10.82;71.90;98292.63;4992511;28;20556;-50
2021/05/09 02:28:25;;;;;;;17.58;5.22;;;;;;;10.78;72.53;98289.09;4992869;28;20081;-44
2021/05/09 02:30:51;;;;;;;25.00;4.70;;;;;;;10.73;72.80;98284.00;4991893;28;20034;-45
2021/05/09 02:33:18;;;;;;;18.25;3.58;;;;;;;10.67;73.57;98283.63;4992840;28;20073;-46
2021/05/09 02:35:44;;;;;;;25.33;4.40;;;;;;;10.66;73.39;98275.75;4992347;28;20077;-45
2021/05/09 02:38:10;;;;;;;20.17;4.43;;;;;;;10.63;74.09;98271.00;4975313;28;20050;-48
2021/05/09 02:40:36;;;;;;;25.88;5.63;;;;;;;10.58;74.57;98265.91;4992453;28;20058;-45
2021/05/09 02:43:03;;;;;;;34.03;4.93;;;;;;;10.55;74.85;98263.94;4992945;28;20050;-47
2021/05/09 02:45:29;;;;;;;30.98;4.57;;;;;;;10.54;75.25;98263.16;4991633;28;20460;-45
2021/05/09 02:47:57;;;;;;;18.17;3.60;;;;;;;10.54;75.29;98260.41;4992872;28;20120;-45
2021/05/09 02:50:23;;;;;;;20.83;4.10;;;;;;;10.56;75.29;98271.06;4991447;28;20046;-47
2021/05/09 02:52:49;;;;;;;17.08;4.00;;;;;;;10.54;75.88;98267.94;4975122;28;20148;-48
2021/05/09 02:55:15;;;;;;;26.08;5.60;;;;;;;10.51;76.01;98269.50;4991735;28;20412;-45
2021/05/09 02:57:42;;;;;;;15.55;3.22;;;;;;;10.51;76.05;98263.19;4992213;28;20294;-49
2021/05/09 03:00:09;;;;;;;20.27;4.13;;;;;;;10.53;75.88;98271.88;4991626;28;20137;-47
2021/05/09 03:02:41;;;;;;;23.35;4.10;;;;;;;10.56;76.13;98265.53;4992008;28;20038;-45
2021/05/09 03:05:09;;;;;;;25.08;5.25;;;;;;;10.58;76.14;98265.91;4975135;28;20065;-47
2021/05/09 03:07:35;;;;;;;20.75;4.53;;;;;;;10.57;76.87;98264.31;4991265;28;20451;-45
2021/05/09 03:10:01;;;;;;;22.20;4.00;;;;;;;10.56;77.13;98265.53;4992195;28;20440;-46
2021/05/09 03:12:28;;;;;;;21.92;4.22;;;;;;;10.59;77.28;98259.19;4992190;28;20081;-46
2021/05/09 03:14:55;;;;;;;26.25;6.32;;;;;;;10.59;77.26;98264.72;4992050;28;20190;-44
2021/05/09 03:17:21;;;;;;;31.27;4.25;;;;;;;10.65;77.48;98263.09;4991002;28;20034;-47
2021/05/09 03:19:48;;;;;;;34.17;8.95;;;;;;;10.67;77.43;98260.72;4989096;28;20144;-46
2021/05/09 03:22:14;;;;;;;36.92;6.22;;;;;;;10.71;77.32;98250.41;4991645;28;20050;-46
2021/05/09 03:24:40;;;;;;;34.30;8.90;;;;;;;10.73;77.19;98253.53;4991243;28;20130;-45
2021/05/09 03:27:11;;;;;;;32.35;5.65;;;;;;;10.71;77.80;98244.88;4991710;28;20045;-44
2021/05/09 03:29:37;;;;;;;34.30;10.25;;;;;;;10.72;77.79;98243.69;4990317;28;20042;-45
2021/05/09 03:32:03;;;;;;;27.13;6.32;;;;;;;10.74;77.86;98246.84;4990854;28;20060;-45
2021/05/09 03:34:30;;;;;;;24.23;5.30;;;;;;;10.76;77.68;98247.22;4991532;28;20058;-45
2021/05/09 03:36:56;;;;;;;38.30;6.65;;;;;;;10.76;77.96;98236.13;4990451;28;20547;-46
2021/05/09 03:39:23;;;;;;;35.47;10.23;;;;;;;10.77;77.97;98221.13;4989912;28;20504;-46
2021/05/09 03:41:49;;;;;;;20.95;4.32;;;;;;;10.79;78.01;98238.09;4989696;28;20042;-45
2021/05/09 03:44:15;;;;;;;21.38;4.95;;;;;;;10.81;78.04;98232.94;4990669;28;20046;-45
2021/05/09 03:46:41;;;;;;;26.00;5.40;;;;;;;10.82;78.09;98228.97;4991166;28;20082;-47
2021/05/09 03:49:08;;;;;;;29.27;6.15;;;;;;;10.86;77.73;98226.94;4991673;28;20145;-46
2021/05/09 03:51:36;;;;;;;31.88;5.25;;;;;;;10.84;77.92;98221.03;4990866;28;20042;-45
2021/05/09 03:54:06;;;;;;;;;;;;;;;10.79;78.27;98221.50;4992326;28;20043;-45
2021/05/09 03:56:32;;;;;;;30.02;5.65;;;;;;;10.78;77.24;98219.91;4991438;28;20317;-48
2021/05/09 03:58:59;;;;;;;35.05;6.25;;;;;;;10.78;77.23;98217.13;4990061;28;20097;-45
2021/05/09 04:01:25;;;;;;;25.85;5.05;;;;;;;10.78;77.56;98217.13;4991598;28;20558;-45
2021/05/09 04:03:51;;;;;;;25.30;4.45;;;;;;;10.77;77.66;98210.03;4989576;28;20407;-44
2021/05/09 04:06:18;;;;;;;27.50;6.40;;;;;;;10.78;77.59;98197.75;4974265;28;20050;-45
2021/05/09 04:08:44;;;;;;;30.02;4.80;;;;;;;10.81;77.53;98200.50;4991661;28;20416;-45
2021/05/09 04:11:12;;;;;;;23.30;4.53;;;;;;;10.82;77.43;98190.22;4990818;28;20428;-46
2021/05/09 04:13:43;;;;;;;17.35;3.38;;;;;;;10.85;77.42;98183.88;4990465;28;20121;-47
2021/05/09 04:16:09;;;;;;;20.15;4.20;;;;;;;10.84;77.30;98182.28;4992075;28;20054;-47
2021/05/09 04:18:35;;;;;;;17.48;4.00;;;;;;;10.79;76.99;98175.22;4991261;28;20042;-47
2021/05/09 04:21:02;;;;;;;23.50;6.18;;;;;;;10.75;76.83;98177.22;4989546;28;20101;-46
2021/05/09 04:23:29;;;;;;;21.88;5.55;;;;;;;10.73;76.67;98174.09;4990466;28;20097;-46
2021/05/09 04:25:55;;;;;;;24.30;5.40;;;;;;;10.69;76.67;98178.09;4991583;28;20061;-49
2021/05/09 04:28:24;;;;;;;41.05;15.25;;;;;;;10.67;76.58;98180.47;4991346;28;20089;-46
2021/05/09 04:30:52;;;;;;;44.38;15.77;;;;;;;10.65;76.55;98174.53;4989271;28;20043;-48
2021/05/09 04:33:24;;;;;;;27.92;8.27;;;;;;;10.63;76.75;98171.41;4988334;28;20042;-49
2021/05/09 04:35:50;;;;;;;14.82;6.18;;;;;;;10.60;76.42;98169.47;4990049;28;20496;-46
2021/05/09 04:38:18;;;;;;;22.50;6.63;;;;;;;10.57;76.58;98167.50;4990792;28;20125;-49
2021/05/09 04:40:44;;;;;;;35.10;9.82;;;;;;;10.54;76.73;98171.09;4989782;28;20100;-49
2021/05/09 04:43:16;;;;;;;27.38;5.78;;;;;;;10.50;77.12;98162.03;4989513;28;20039;-46
2021/05/09 04:45:48;;;;;;;29.40;6.57;;;;;;;10.50;77.07;98165.59;4973349;28;20077;-47
2021/05/09 04:48:15;;;;;;;33.88;5.60;;;;;;;10.51;76.95;98161.59;4992719;28;20050;-46
2021/05/09 04:50:41;;;;;;;25.90;4.25;;;;;;;10.53;77.00;98155.69;4994965;28;20042;-47
2021/05/09 04:53:35;;;;;;;30.35;5.13;;;;;;;10.57;77.56;98150.91;4977212;28;20070;-51
2021/05/09 04:56:08;;;;;;;19.90;4.15;;;;;;;10.60;77.46;98147.31;4993506;28;20105;-48
2021/05/09 04:58:39;;;;;;;19.42;4.35;;;;;;;10.58;77.90;98150.50;4992592;28;20093;-47
2021/05/09 05:01:09;;;;;;;24.45;3.60;;;;;;;10.61;77.21;98154.44;4994091;28;20050;-48
2021/05/09 05:03:36;;;;;;;25.52;4.70;;;;;;;10.60;77.06;98161.94;4992670;28;20108;-49
2021/05/09 05:06:03;;;;;;;26.05;4.25;;;;;;;10.56;77.12;98163.19;4993650;28;20046;-49
2021/05/09 05:08:32;;;;;;;29.48;4.22;;;;;;;10.57;77.35;98160.00;4994161;28;20432;-47
2021/05/09 05:10:59;;;;;;;22.50;4.85;;;;;;;10.58;77.45;98167.09;4994865;28;20093;-45
2021/05/09 05:13:33;;;;;;;14.18;4.35;;;;;;;10.63;77.40;98165.88;4992804;28;20164;-50
2021/05/09 05:16:02;;;;;;;19.13;3.20;;;;;;;10.66;77.88;98156.75;4994466;28;20133;-47
2021/05/09 05:18:28;;;;;;;26.30;4.63;;;;;;;10.73;77.64;98162.22;4993271;28;20061;-50
2021/05/09 05:20:57;;;;;;;21.17;3.13;;;;;;;10.76;77.58;98159.44;4991604;28;20137;-47
2021/05/09 05:23:23;;;;;;;19.92;3.10;;;;;;;10.80;77.50;98151.88;4993844;28;20046;-48
2021/05/09 05:25:50;;;;;;;25.13;3.97;;;;;;;10.86;77.29;98150.25;4994515;28;20133;-48
2021/05/09 05:28:16;;;;;;;18.30;5.03;;;;;;;10.90;77.30;98153.00;4993848;28;20066;-46
2021/05/09 05:30:44;;;;;;;29.27;3.15;;;;;;;10.91;77.37;98151.78;4993840;28;20072;-44
2021/05/09 05:33:40;;;;;;;24.05;4.30;;;;;;;10.98;77.20;98148.97;4993514;28;20120;-47
2021/05/09 05:36:08;;;;;;;22.00;4.68;;;;;;;11.08;76.88;98142.53;4993595;28;20106;-45
2021/05/09 05:38:35;;;;;;;21.45;4.22;;;;;;;11.12;77.08;98137.72;4993251;28;20807;-46
2021/05/09 05:41:01;;;;;;;25.45;6.03;;;;;;;11.14;77.03;98156.69;4993044;28;20073;-46
2021/05/09 05:43:30;;;;;;;19.50;3.80;;;;;;;11.18;77.10;98157.44;4993106;28;20161;-46
2021/05/09 05:45:58;;;;;;;22.48;3.58;;;;;;;11.27;77.11;98143.91;4992933;28;20488;-48
2021/05/09 05:48:25;;;;;;;18.55;3.72;;;;;;;11.32;77.08;98141.47;4993523;28;20078;-48
2021/05/09 05:50:52;;;;;;;22.23;4.00;;;;;;;11.34;76.84;98144.59;4993269;28;20054;-49
2021/05/09 05:53:21;;;;;;;21.92;3.75;;;;;;;11.36;76.69;98144.19;4993419;28;20046;-46
2021/05/09 05:55:48;;;;;;;22.52;4.60;;;;;;;11.36;76.70;98158.03;4992915;28;20066;-46
2021/05/09 05:58:15;;;;;;;21.92;3.50;;;;;;;11.38;76.66;98145.38;4991311;28;20046;-44
2021/05/09 06:00:41;;;;;;;26.80;4.70;;;;;;;11.46;76.65;98157.91;4992102;28;20046;-45
2021/05/09 06:03:08;;;;;;;22.27;3.60;;;;;;;11.57;76.48;98157.78;4991209;28;20081;-45
2021/05/09 06:05:35;;;;;;;20.10;3.80;;;;;;;11.67;76.33;98151.34;4993468;28;20101;-48
2021/05/09 06:08:01;;;;;;;36.65;6.72;;;;;;;11.77;76.18;98152.44;4989118;28;20050;-50
2021/05/09 06:10:27;;;;;;;17.17;4.20;;;;;;;11.87;76.17;98145.94;4974041;28;20073;-44
2021/05/09 06:12:55;;;;;;;20.63;3.13;;;;;;;12.00;76.04;98155.28;4991958;28;20074;-46
2021/05/09 06:15:22;;;;;;;19.08;4.35;;;;;;;12.08;75.64;98160.31;4992541;28;20054;-47
2021/05/09 06:17:50;;;;;;;15.23;3.50;;;;;;;12.09;75.14;98166.66;4984447;28;20065;-48
2021/05/09 06:20:18;;;;;;;14.18;3.20;;;;;;;12.08;75.09;98170.63;4990367;28;20084;-47
2021/05/09 06:22:44;;;;;;;17.90;2.92;;;;;;;12.03;74.70;98169.09;4990548;28;20148;-48
2021/05/09 06:25:11;;;;;;;14.43;4.28;;;;;;;11.96;74.89;98165.63;4990801;28;20062;-45
2021/05/09 06:27:37;;;;;;;18.48;5.68;;;;;;;11.90;75.19;98170.06;4989825;28;20039;-47
2021/05/09 06:30:05;;;;;;;21.55;4.30;;;;;;;11.81;75.35;98161.50;4989476;28;20135;-47
2021/05/09 06:32:31;;;;;;;22.23;3.25;;;;;;;11.78;75.56;98162.31;4989100;28;20050;-45
2021/05/09 06:34:59;;;;;;;21.27;3.85;;;;;;;11.73;75.51;98155.22;4990486;28;20050;-51
2021/05/09 06:37:26;;;;;;;16.15;3.55;;;;;;;11.72;76.06;98158.44;4990742;28;20050;-46
2021/05/09 06:39:53;;;;;;;25.88;5.25;;;;;;;11.72;75.89;98155.66;4990970;28;20050;-48
2021/05/09 06:42:20;;;;;;;26.58;6.97;;;;;;;11.81;75.98;98155.94;4990686;28;20534;-50
2021/05/09 06:44:55;;;;;;;18.33;4.43;;;;;;;11.93;76.18;98152.59;4990977;28;20476;-46
2021/05/09 06:47:22;;;;;;;20.27;4.18;;;;;;;12.12;75.92;98149.19;4989320;28;20109;-48
2021/05/09 06:49:48;;;;;;;26.35;4.30;;;;;;;12.33;75.60;98143.31;4990575;28;20510;-50
2021/05/09 06:52:17;;;;;;;16.35;2.83;;;;;;;12.47;75.17;98148.63;4993866;28;20051;-47
2021/05/09 06:54:43;;;;;;;25.15;4.05;;;;;;;12.63;74.79;98140.44;4989108;28;20081;-46
2021/05/09 06:57:10;;;;;;;26.67;6.47;;;;;;;12.75;74.48;98141.84;4991202;28;20085;-50
2021/05/09 06:59:36;;;;;;;19.17;3.45;;;;;;;12.88;74.19;98136.44;4990053;28;20105;-48
2021/05/09 07:02:03;;;;;;;20.70;3.47;;;;;;;12.98;74.19;98138.25;4989844;28;20049;-51
2021/05/09 07:04:29;;;;;;;20.65;4.53;;;;;;;13.03;73.59;98134.97;4990347;28;20054;-46
2021/05/09 07:06:55;;;;;;;13.35;3.00;;;;;;;13.01;72.85;98137.41;4989669;28;20132;-46
2021/05/09 07:09:22;;;;;;;20.58;4.10;;;;;;;12.92;72.52;98151.81;4989623;28;20136;-51
2021/05/09 07:11:48;;;;;;;16.40;3.80;;;;;;;12.79;72.23;98154.44;4989414;28;20042;-46
2021/05/09 07:14:14;;;;;;;16.33;3.72;;;;;;;12.67;72.20;98149.50;4990234;28;20769;-47
2021/05/09 07:16:41;;;;;;;23.83;4.20;;;;;;;12.62;72.15;98155.53;4971497;28;20050;-46
2021/05/09 07:19:09;;;;;;;16.08;2.78;;;;;;;12.58;71.93;98149.25;4985007;28;20042;-44
2021/05/09 07:21:41;;;;;;;12.50;3.00;;;;;;;12.58;71.88;98140.13;4989471;28;20133;-45
2021/05/09 07:24:08;;;;;;;9.50;2.45;;;;;;;12.69;72.09;98155.41;4989655;28;20052;-47
2021/05/09 07:26:35;;;;;;;14.13;3.53;;;;;;;12.81;72.20;98162.34;4989939;28;20457;-50
2021/05/09 07:29:02;;;;;;;15.30;3.17;;;;;;;13.04;71.99;98153.22;4989369;28;20039;-47
2021/05/09 07:31:29;;;;;;;12.18;2.72;;;;;;;13.22;71.79;98137.81;4989065;28;20069;-44
2021/05/09 07:34:00;;;;;;;20.10;3.95;;;;;;;13.24;71.21;98140.16;4990063;28;20137;-46
2021/05/09 07:36:28;;;;;;;14.48;4.18;;;;;;;13.25;70.72;98138.97;4971641;28;20050;-48
2021/05/09 07:38:54;;;;;;;14.07;3.90;;;;;;;13.26;70.49;98126.66;4978295;28;20135;-51
2021/05/09 07:41:21;;;;;;;28.63;5.38;;;;;;;13.29;70.29;98134.13;4989489;28;20046;-44
2021/05/09 07:43:48;;;;;;;15.43;3.45;;;;;;;13.28;69.88;98138.91;4989825;28;20400;-47
2021/05/09 07:46:14;;;;;;;15.98;3.28;;;;;;;13.21;69.76;98132.72;4988546;28;20145;-47
2021/05/09 07:48:41;;;;;;;16.38;3.20;;;;;;;13.16;69.70;98127.63;4989791;28;20517;-47
2021/05/09 07:51:07;;;;;;;13.63;3.20;;;;;;;13.09;69.31;98139.66;4989863;28;20077;-46
2021/05/09 07:53:33;;;;;;;19.08;3.40;;;;;;;13.02;69.22;98128.66;4985805;28;20454;-50
2021/05/09 07:56:00;;;;;;;16.63;3.58;;;;;;;13.01;69.32;98127.06;4981690;28;20057;-46
2021/05/09 07:58:26;;;;;;;10.23;3.22;;;;;;;12.96;69.23;98124.00;4989909;28;20129;-48
2021/05/09 08:00:54;;;;;;;12.65;2.92;;;;;;;12.89;68.96;98136.03;4970758;28;20420;-49
2021/05/09 08:03:20;;;;;;;16.48;3.22;;;;;;;12.88;69.19;98140.00;4966243;28;20051;-49
2021/05/09 08:05:47;;;;;;;16.42;3.55;;;;;;;12.96;69.16;98146.22;4970278;28;20059;-46
2021/05/09 08:08:13;;;;;;;14.75;4.63;;;;;;;13.10;69.47;98146.78;4970356;28;20058;-49
2021/05/09 08:10:43;;;;;;;13.20;3.17;;;;;;;13.24;69.19;98145.72;4970248;28;20134;-46
2021/05/09 08:13:11;;;;;;;12.50;3.15;;;;;;;13.29;68.80;98139.69;4969935;28;20226;-46
2021/05/09 08:15:39;;;;;;;16.00;2.55;;;;;;;13.27;68.50;98139.31;4970600;28;20054;-47
2021/05/09 08:18:06;;;;;;;16.55;3.70;;;;;;;13.22;68.60;98148.16;4968875;28;20046;-45
2021/05/09 08:20:33;;;;;;;11.25;3.13;;;;;;;13.24;68.59;98142.94;4971010;28;20047;-44
2021/05/09 08:22:59;;;;;;;20.73;3.63;;;;;;;13.30;68.56;98139.25;4972884;28;20051;-50
2021/05/09 08:25:26;;;;;;;12.00;3.15;;;;;;;13.28;68.37;98147.25;4972344;28;20879;-48
2021/05/09 08:27:52;;;;;;;10.73;3.08;;;;;;;13.26;67.95;98160.00;4974260;28;20054;-46
2021/05/09 08:30:21;;;;;;;14.65;1.90;;;;;;;13.25;67.72;98144.53;4972577;28;20046;-48
2021/05/09 08:32:48;;;;;;;11.20;2.30;;;;;;;13.26;67.85;98155.19;4972827;28;20050;-48
2021/05/09 08:35:15;;;;;;;8.82;1.98;;;;;;;13.30;67.90;98139.25;4973683;28;20043;-48
2021/05/09 08:37:42;;;;;;;4.55;1.35;;;;;;;13.46;68.00;98141.34;4973314;28;20536;-46
2021/05/09 08:40:13;;;;;;;6.72;1.42;;;;;;;13.51;67.45;98148.38;4973137;28;20055;-45
2021/05/09 08:42:40;;;;;;;6.28;1.38;;;;;;;13.49;67.17;98151.59;4973042;28;20113;-48
2021/05/09 08:45:08;;;;;;;6.47;1.77;;;;;;;13.38;67.16;98143.47;4972905;28;20074;-45
2021/05/09 08:47:42;;;;;;;8.05;1.83;;;;;;;13.29;67.19;98146.00;4971503;28;20052;-48
2021/05/09 08:50:11;;;;;;;9.32;1.80;;;;;;;13.27;67.36;98139.31;4972334;28;20509;-45
2021/05/09 08:52:40;;;;;;;7.68;1.48;;;;;;;13.25;67.12;98136.97;4973229;28;20051;-46
2021/05/09 08:55:11;;;;;;;5.25;2.20;;;;;;;13.21;66.73;98152.16;4972660;28;20497;-44
2021/05/09 08:57:41;;;;;;;12.80;2.22;;;;;;;13.23;67.05;98133.06;4973542;28;21000;-45
2021/05/09 09:00:10;;;;;;;9.80;2.72;;;;;;;13.19;66.83;98135.88;4986655;28;20077;-47
2021/05/09 09:02:54;;;;;;;14.25;2.30;;;;;;;13.18;67.04;98144.66;4992737;28;20046;-45
2021/05/09 09:05:32;;;;;;;12.48;2.95;;;;;;;13.16;66.24;98131.19;4975113;28;20069;-45
2021/05/09 09:07:59;;;;;;;24.63;5.82;;;;;;;13.16;66.47;98138.72;4987677;28;20129;-48
2021/05/09 09:10:38;;;;;;;8.95;2.20;;;;;;;13.18;66.71;98139.09;4992508;28;20054;-48
2021/05/09 09:13:29;;;;;;;17.02;3.22;;;;;;;13.18;66.50;98134.34;4992600;28;20042;-45
2021/05/09 09:16:00;;;;;;;9.63;1.92;;;;;;;13.20;66.38;98139.47;4990867;28;20058;-47
2021/05/09 09:18:36;;;;;;;15.02;4.00;;;;;;;13.16;66.46;98133.16;4992112;28;20046;-45
2021/05/09 09:21:26;;;;;;;15.02;3.65;;;;;;;13.10;66.89;98137.66;4992344;28;20058;-49
2021/05/09 09:24:04;;;;;;;12.30;3.17;;;;;;;13.12;67.16;98138.81;4991658;28;20157;-46
2021/05/09 09:26:39;;;;;;;11.90;3.00;;;;;;;13.13;66.93;98137.59;4975005;28;20453;-46
2021/05/09 09:29:25;;;;;;;15.68;3.47;;;;;;;13.23;67.04;98133.06;4991338;28;20154;-48
2021/05/09 09:31:54;;;;;;;17.83;2.92;;;;;;;13.22;66.63;98132.28;4992415;28;20129;-45
2021/05/09 09:34:21;;;;;;;16.45;2.88;;;;;;;13.20;66.36;98131.91;4984927;28;20077;-48
2021/05/09 09:36:48;;;;;;;11.60;2.20;;;;;;;13.19;66.24;98135.88;4974314;28;20136;-49
2021/05/09 09:39:15;;;;;;;8.80;2.47;;;;;;;13.14;66.18;98149.50;4991614;28;20046;-45
2021/05/09 09:41:48;;;;;;;17.15;2.88;;;;;;;13.13;66.58;98140.38;4991653;28;20042;-47
2021/05/09 09:44:17;;;;;;;12.38;2.67;;;;;;;13.20;66.86;98145.81;4991187;28;20876;-45
2021/05/09 09:46:52;;;;;;;16.00;3.78;;;;;;;13.27;66.76;98139.31;4991789;28;20069;-48
2021/05/09 09:49:31;;;;;;;15.02;3.95;;;;;;;13.33;66.63;98143.19;4973426;28;20130;-45
2021/05/09 09:52:00;;;;;;;20.85;3.28;;;;;;;13.39;66.28;98119.25;4991422;28;20093;-47
2021/05/09 09:54:44;;;;;;;14.65;3.67;;;;;;;13.45;66.13;98114.72;4991457;28;20077;-48
2021/05/09 09:57:11;;;;;;;13.98;3.30;;;;;;;13.57;65.97;98119.66;4988861;28;20096;-45
2021/05/09 09:59:38;;;;;;;10.18;2.75;;;;;;;13.66;65.87;98128.19;4988496;28;20054;-45
2021/05/09 10:02:06;;;;;;;15.88;4.53;;;;;;;13.65;65.58;98143.31;4990276;28;20096;-46
2021/05/09 10:04:34;;;;;;;9.95;2.00;;;;;;;13.69;65.50;98121.78;4991076;28;20135;-45
2021/05/09 10:07:07;;;;;;;10.20;2.17;;;;;;;13.75;63.50;98119.28;4991243;28;20778;-46
2021/05/09 10:09:33;;;;;;;13.68;3.63;;;;;;;13.77;64.10;98134.31;4992005;28;20050;-46
2021/05/09 10:12:00;;;;;;;13.88;2.80;;;;;;;13.79;64.26;98140.22;4990229;28;20085;-48
2021/05/09 10:14:31;;;;;;;14.50;3.45;;;;;;;13.82;63.75;98139.38;4990557;28;20050;-45
2021/05/09 10:16:57;;;;;;;12.77;2.78;;;;;;;13.85;63.74;98135.75;4990958;28;20073;-46
2021/05/09 10:19:26;;;;;;;11.00;2.40;;;;;;;13.93;63.69;98114.91;4991022;28;20050;-45
2021/05/09 10:21:52;;;;;;;15.52;3.20;;;;;;;13.93;63.14;98137.16;4992170;28;20145;-48
2021/05/09 10:24:18;;;;;;;12.35;2.65;;;;;;;13.91;63.31;98122.13;4990914;28;20066;-45
2021/05/09 10:27:07;;;;;;;17.42;3.13;;;;;;;13.92;63.52;98141.16;4990995;28;20050;-47
2021/05/09 10:32:29;;;;;;;10.98;2.50;;;;;;;14.13;63.34;98114.06;4991070;28;20105;-46
2021/05/09 10:34:57;;;;;;;11.05;2.38;;;;;;;14.39;63.40;98113.88;4989912;28;20042;-45
2021/05/09 10:40:20;;;;;;;11.40;3.45;;;;;;;14.79;60.92;98113.69;4989990;28;20412;-48
2021/05/09 10:43:08;;;;;;;11.05;2.42;;;;;;;14.83;61.84;98109.56;4989545;28;20062;-49
2021/05/09 10:45:35;;;;;;;14.55;2.53;;;;;;;14.85;61.55;98118.28;4981016;28;20045;-46
2021/05/09 10:48:13;;;;;;;11.40;2.75;;;;;;;14.74;60.17;98106.66;4990033;28;20100;-46
2021/05/09 10:50:43;;;;;;;12.48;3.20;;;;;;;14.62;60.88;98104.56;4990500;28;20543;-48
2021/05/09 10:53:29;;;;;;;14.52;3.20;;;;;;;14.56;61.21;98107.06;4990105;28;20559;-46
2021/05/09 10:55:56;;;;;;;13.48;2.92;;;;;;;14.50;60.83;98113.63;4990577;28;20464;-46
2021/05/09 10:58:46;;;;;;;12.10;2.38;;;;;;;14.40;60.35;98121.00;4989669;28;20074;-45
2021/05/09 11:01:21;;;;;;;14.80;2.25;;;;;;;14.45;60.77;98128.06;4990939;28;20073;-47
2021/05/09 11:03:52;;;;;;;23.15;4.60;;;;;;;14.48;60.86;98118.84;4971447;28;20042;-45
2021/05/09 11:06:24;;;;;;;13.00;3.25;;;;;;;14.47;60.98;98126.41;4981284;28;20039;-45
2021/05/09 11:08:53;;;;;;;16.27;4.43;;;;;;;14.52;61.25;98125.09;4988793;28;20058;-47
2021/05/09 11:11:42;;;;;;;13.02;2.22;;;;;;;14.56;61.18;98115.44;4991096;28;20436;-51
2021/05/09 11:14:09;;;;;;;14.27;3.55;;;;;;;14.60;60.99;98115.34;4989079;28;20042;-45
2021/05/09 11:16:41;;;;;;;15.48;2.95;;;;;;;14.54;60.83;98101.16;4988323;28;20073;-49
2021/05/09 11:19:11;;;;;;;10.00;2.97;;;;;;;14.60;60.87;98112.56;4990254;28;20054;-45
2021/05/09 11:21:44;;;;;;;12.15;2.50;;;;;;;14.65;60.86;98103.69;4988759;28;20096;-46
2021/05/09 11:24:18;;;;;;;16.98;2.00;;;;;;;14.66;59.65;98093.34;4989033;28;20050;-45
2021/05/09 11:26:49;;;;;;;11.98;2.53;;;;;;;14.66;59.37;98099.69;4989325;28;20042;-48
2021/05/09 11:29:18;;;;;;;11.48;2.63;;;;;;;14.68;59.70;98102.81;4971708;28;20141;-52
2021/05/09 11:31:54;;;;;;;10.70;2.30;;;;;;;14.74;60.02;98101.06;4990153;28;20562;-45
2021/05/09 11:34:22;;;;;;;13.35;2.63;;;;;;;14.80;59.92;98104.88;4990924;28;20062;-45
2021/05/09 11:36:51;;;;;;;11.63;2.58;;;;;;;14.81;60.00;98109.25;4989331;28;20077;-47
2021/05/09 11:39:21;;;;;;;10.13;2.25;;;;;;;14.74;59.74;98106.66;4990331;28;20484;-45